Time;durP1;ratioP1;P1;durP2;ratioP2;P2;SDS_P1;SDS_P2;PMS_P1;PMS_P2;Temp;Humidity;BMP_temperature;BMP_pressure;BME280_temperature;BME280_humidity;BME280_pressure;Samples;Min_cycle;Max_cycle;Signal;HPM_P1;HPM_P2
2021/12/24 00:02:14;;;;;;;20.60;8.90;;;2.90;99.90;;;;;;5099230;28;20811;-60
2021/12/24 00:04:41;;;;;;;16.03;11.30;;;2.90;99.90;;;;;;5099176;28;20837;-58
2021/12/24 00:07:08;;;;;;;21.53;11.30;;;2.90;99.90;;;;;;5098765;28;20478;-54
2021/12/24 00:09:36;;;;;;;17.10;10.00;;;2.90;99.90;;;;;;5102723;28;20472;-57
2021/12/24 00:12:11;;;;;;;18.87;9.73;;;3.00;99.90;;;;;;5102242;28;20481;-57
2021/12/24 00:14:41;;;;;;;23.30;11.47;;;3.00;99.90;;;;;;5102458;28;20441;-47
2021/12/24 00:17:13;;;;;;;19.17;10.57;;;3.00;99.90;;;;;;5101634;28;20785;-47
2021/12/24 00:19:46;;;;;;;10.23;6.33;;;3.00;99.90;;;;;;5102081;28;20521;-47
2021/12/24 00:22:42;;;;;;;23.30;12.50;;;3.10;99.90;;;;;;5101544;28;20466;-47
2021/12/24 00:36:07;;;;;;;22.00;10.07;;;3.10;99.90;;;;;;5101334;28;20491;-51
2021/12/24 00:38:34;;;;;;;15.50;7.53;;;3.10;99.90;;;;;;5101001;28;20549;-49
2021/12/24 00:41:00;;;;;;;31.67;11.70;;;3.10;99.90;;;;;;5101391;28;20480;-45
2021/12/24 00:43:29;;;;;;;17.80;9.03;;;3.10;99.90;;;;;;5100936;28;20470;-49
2021/12/24 00:45:56;;;;;;;16.93;8.67;;;3.10;99.90;;;;;;5100835;28;20438;-49
2021/12/24 00:48:24;;;;;;;21.10;8.37;;;3.10;99.90;;;;;;5100180;28;20454;-52
2021/12/24 00:51:17;;;;;;;16.50;9.77;;;3.10;99.90;;;;;;5100252;28;20914;-53
2021/12/24 00:56:24;;;;;;;27.83;11.10;;;3.20;99.90;;;;;;5101034;28;20467;-49
2021/12/24 00:58:50;;;;;;;15.90;9.10;;;3.20;99.90;;;;;;5100755;28;20456;-48
2021/12/24 01:01:18;;;;;;;22.13;9.83;;;3.20;99.90;;;;;;5100536;28;20934;-50
2021/12/24 01:03:46;;;;;;;25.90;10.20;;;3.20;99.90;;;;;;5100233;28;20553;-49
2021/12/24 01:06:13;;;;;;;28.17;10.07;;;3.20;99.90;;;;;;5100585;28;20795;-47
2021/12/24 01:08:39;;;;;;;19.83;11.30;;;3.30;99.90;;;;;;5100471;28;20446;-50
2021/12/24 01:11:09;;;;;;;21.53;11.20;;;3.30;99.90;;;;;;5100757;28;20502;-49
2021/12/24 01:13:36;;;;;;;28.23;9.63;;;3.30;99.90;;;;;;5100203;28;20971;-50
2021/12/24 01:16:11;;;;;;;20.37;10.30;;;3.30;99.90;;;;;;5100107;28;20902;-47
2021/12/24 01:18:46;;;;;;;22.97;10.30;;;3.30;99.90;;;;;;5100927;28;20476;-49
2021/12/24 01:21:27;;;;;;;18.80;9.43;;;3.40;99.90;;;;;;5102371;28;20979;-49
2021/12/24 01:23:57;;;;;;;20.40;12.80;;;3.40;99.90;;;;;;5100534;28;20430;-49
2021/12/24 01:26:35;;;;;;;19.93;9.50;;;3.40;99.90;;;;;;5099949;28;20426;-48
2021/12/24 01:29:36;;;;;;;23.57;10.07;;;3.40;99.90;;;;;;5102139;28;20434;-47
2021/12/24 01:40:24;;;;;;;14.03;7.57;;;3.50;99.90;;;;;;5099357;28;20878;-50
2021/12/24 01:42:52;;;;;;;27.80;9.37;;;3.60;99.90;;;;;;5099342;28;20755;-51
2021/12/24 01:45:23;;;;;;;23.03;9.60;;;3.60;99.90;;;;;;5099110;28;20446;-50
2021/12/24 01:47:52;;;;;;;17.47;10.63;;;3.60;99.90;;;;;;5098620;28;20470;-45
2021/12/24 01:50:19;;;;;;;15.00;7.50;;;3.60;99.90;;;;;;5099156;28;20460;-47
2021/12/24 01:52:50;;;;;;;18.33;9.10;;;3.30;99.90;;;;;;5098595;28;20493;-48
2021/12/24 01:55:18;;;;;;;23.37;13.27;;;3.70;99.90;;;;;;5099840;28;20453;-45
2021/12/24 01:57:45;;;;;;;32.93;9.23;;;3.70;99.90;;;;;;5099115;28;20438;-47
2021/12/24 02:00:15;;;;;;;26.43;9.43;;;3.70;99.90;;;;;;5099367;28;20422;-50
2021/12/24 02:02:41;;;;;;;14.73;8.80;;;3.70;99.90;;;;;;5099100;28;20470;-51
2021/12/24 02:05:10;;;;;;;13.90;8.00;;;3.70;99.90;;;;;;5098875;28;20519;-47
2021/12/24 02:07:37;;;;;;;15.63;8.70;;;3.70;99.90;;;;;;5099145;28;20446;-51
2021/12/24 02:10:08;;;;;;;21.77;10.93;;;3.70;99.90;;;;;;5098399;28;20466;-48
2021/12/24 02:12:36;;;;;;;19.33;9.03;;;3.80;99.90;;;;;;5098403;28;20477;-53
2021/12/24 02:15:04;;;;;;;18.10;8.83;;;3.80;99.90;;;;;;5098641;28;20453;-50
2021/12/24 02:28:42;;;;;;;18.53;10.23;;;3.90;99.90;;;;;;5089077;28;20536;-48
2021/12/24 02:31:12;;;;;;;16.17;10.40;;;4.00;99.90;;;;;;5099756;28;20430;-49
2021/12/24 02:33:40;;;;;;;18.80;9.70;;;4.00;99.90;;;;;;5098948;28;20842;-48
2021/12/24 02:36:09;;;;;;;18.10;9.40;;;4.00;99.90;;;;;;5098027;28;20450;-52
2021/12/24 02:38:37;;;;;;;17.37;8.40;;;4.00;99.90;;;;;;5097922;28;20454;-47
2021/12/24 02:41:04;;;;;;;19.97;8.27;;;4.00;99.90;;;;;;5097566;28;20875;-51
2021/12/24 02:43:31;;;;;;;21.23;10.80;;;4.00;99.90;;;;;;5097569;28;20438;-50
2021/12/24 02:46:07;;;;;;;16.60;8.13;;;4.00;99.90;;;;;;5103849;28;20469;-49
2021/12/24 02:54:04;;;;;;;16.23;7.90;;;4.00;99.90;;;;;;5097628;28;20425;-45
2021/12/24 02:56:32;;;;;;;15.60;7.87;;;4.00;99.90;;;;;;5096930;28;20879;-48
2021/12/24 02:59:00;;;;;;;26.93;11.20;;;4.00;99.90;;;;;;5097797;28;20430;-50
2021/12/24 03:01:30;;;;;;;16.63;8.10;;;4.00;99.90;;;;;;5097406;28;20794;-51
2021/12/24 03:03:57;;;;;;;13.20;7.17;;;4.00;99.90;;;;;;5097341;28;20454;-47
2021/12/24 03:06:28;;;;;;;19.47;10.23;;;4.00;99.90;;;;;;5097633;28;20799;-50
2021/12/24 03:08:56;;;;;;;20.07;10.97;;;4.00;99.90;;;;;;5097604;28;20461;-49
2021/12/24 03:11:24;;;;;;;18.40;7.50;;;4.00;99.90;;;;;;5097677;28;20466;-50
2021/12/24 03:13:51;;;;;;;19.90;9.70;;;4.00;99.90;;;;;;5097054;28;20490;-47
2021/12/24 03:16:18;;;;;;;20.13;8.30;;;4.00;99.90;;;;;;5097132;28;20430;-49
2021/12/24 03:18:46;;;;;;;21.00;9.33;;;4.10;99.90;;;;;;5098288;28;20457;-45
2021/12/24 03:21:16;;;;;;;16.03;9.23;;;4.10;99.90;;;;;;5099627;28;20457;-43
2021/12/24 03:24:33;;;;;;;16.80;10.17;;;4.10;99.90;;;;;;5099273;28;20458;-48
2021/12/24 03:26:34;;;;;;;17.30;9.70;;;4.10;99.90;;;;;;5097173;28;20438;-50
2021/12/24 03:29:01;;;;;;;12.63;7.60;;;4.20;99.90;;;;;;5097899;28;20801;-47
2021/12/24 03:31:28;;;;;;;11.40;7.43;;;4.10;99.90;;;;;;5100004;28;20466;-49
2021/12/24 03:33:55;;;;;;;17.30;8.20;;;4.10;99.90;;;;;;5099661;28;20477;-48
2021/12/24 03:36:23;;;;;;;17.93;9.03;;;4.20;99.90;;;;;;5098153;28;20503;-52
2021/12/24 03:38:51;;;;;;;17.30;8.13;;;4.20;99.90;;;;;;5097776;28;20426;-45
2021/12/24 03:41:18;;;;;;;12.83;8.10;;;4.20;99.90;;;;;;5098233;28;20499;-46
2021/12/24 03:43:45;;;;;;;16.90;8.93;;;4.30;99.90;;;;;;5100515;28;20469;-47
2021/12/24 03:46:15;;;;;;;15.70;8.00;;;4.20;99.90;;;;;;5102276;28;20441;-51
2021/12/24 03:48:49;;;;;;;12.63;6.43;;;4.20;99.90;;;;;;5100977;28;20512;-48
2021/12/24 03:51:35;;;;;;;13.60;6.53;;;4.20;99.90;;;;;;5101152;28;20433;-47
2021/12/24 03:56:48;;;;;;;11.07;7.80;;;4.20;99.90;;;;;;5101331;28;20878;-47
2021/12/24 03:59:15;;;;;;;10.40;5.90;;;4.20;99.90;;;;;;5100396;28;20438;-51
2021/12/24 04:01:41;;;;;;;10.30;5.83;;;4.30;99.90;;;;;;5101117;28;20457;-47
2021/12/24 04:04:09;;;;;;;12.80;5.87;;;4.30;99.90;;;;;;5100840;28;20473;-52
2021/12/24 04:06:36;;;;;;;12.03;6.30;;;4.30;99.90;;;;;;5100488;28;20470;-51
2021/12/24 04:09:06;;;;;;;8.20;4.50;;;4.40;99.90;;;;;;5100625;28;20549;-48
2021/12/24 04:11:33;;;;;;;6.73;3.93;;;4.40;99.90;;;;;;5100574;28;20458;-51
2021/12/24 04:14:00;;;;;;;10.43;5.40;;;4.50;99.90;;;;;;5100940;28;20504;-47
2021/12/24 04:16:28;;;;;;;7.80;4.67;;;4.50;99.90;;;;;;5100707;28;20442;-49
2021/12/24 04:19:12;;;;;;;7.50;4.50;;;4.50;99.90;;;;;;5100574;28;20469;-51
2021/12/24 04:27:09;;;;;;;8.30;4.47;;;4.60;99.90;;;;;;5101096;28;20428;-47
2021/12/24 04:29:37;;;;;;;11.63;4.13;;;4.60;99.90;;;;;;5100483;28;20473;-52
2021/12/24 04:32:11;;;;;;;10.43;5.53;;;4.60;99.90;;;;;;5101880;28;20434;-44
2021/12/24 04:34:39;;;;;;;7.97;4.30;;;4.60;99.90;;;;;;5102756;28;20443;-44
2021/12/24 04:37:49;;;;;;;9.63;5.40;;;4.70;99.90;;;;;;5101543;28;20442;-45
2021/12/24 04:51:16;;;;;;;10.50;3.87;;;4.80;99.90;;;;;;5100771;28;20423;-48
2021/12/24 05:02:17;;;;;;;6.50;3.83;;;4.80;99.90;;;;;;5099684;28;20457;-48
2021/12/24 05:04:50;;;;;;;3.80;2.63;;;4.80;99.90;;;;;;5099228;28;20534;-50
2021/12/24 05:07:39;;;;;;;12.00;4.53;;;4.80;99.90;;;;;;5099158;28;20533;-51
2021/12/24 05:10:07;;;;;;;7.17;4.37;;;4.90;99.90;;;;;;5099361;28;20477;-50
2021/12/24 05:12:35;;;;;;;5.40;3.33;;;4.90;99.90;;;;;;5098783;28;20450;-49
2021/12/24 05:15:03;;;;;;;9.47;4.70;;;4.90;99.90;;;;;;5098854;28;20548;-49
2021/12/24 05:17:35;;;;;;;6.40;4.17;;;4.90;99.90;;;;;;5098936;28;20476;-50
2021/12/24 05:22:47;;;;;;;3.00;2.70;;;4.90;99.90;;;;;;5101727;28;20449;-48
2021/12/24 05:25:13;;;;;;;10.27;3.63;;;5.00;99.90;;;;;;5099903;28;20446;-47
2021/12/24 05:27:41;;;;;;;5.43;3.60;;;5.00;99.90;;;;;;5098996;28;20534;-50
2021/12/24 05:30:09;;;;;;;7.10;4.70;;;5.00;99.90;;;;;;5099369;28;20453;-48
2021/12/24 05:32:37;;;;;;;6.27;3.83;;;5.00;99.90;;;;;;5099813;28;20449;-47
2021/12/24 05:35:04;;;;;;;6.10;3.00;;;5.00;99.90;;;;;;5101787;28;20450;-57
2021/12/24 05:37:31;;;;;;;8.10;3.27;;;5.00;99.90;;;;;;5099148;28;20464;-51
2021/12/24 05:39:58;;;;;;;4.13;2.60;;;5.00;99.90;;;;;;5098601;28;20470;-46
2021/12/24 05:42:27;;;;;;;9.30;3.50;;;5.10;99.90;;;;;;5098955;28;20458;-47
2021/12/24 05:45:02;;;;;;;7.23;3.50;;;5.10;99.90;;;;;;5098747;28;20473;-50
2021/12/24 05:47:28;;;;;;;3.27;2.17;;;5.10;99.90;;;;;;5099169;28;20441;-50
2021/12/24 05:49:55;;;;;;;4.83;2.73;;;5.10;99.90;;;;;;5099288;28;20466;-47
2021/12/24 05:52:22;;;;;;;5.57;3.93;;;5.10;99.90;;;;;;5098697;28;20442;-51
2021/12/24 05:54:48;;;;;;;2.40;2.00;;;5.10;99.90;;;;;;5098680;28;20477;-49
2021/12/24 05:57:15;;;;;;;2.67;1.93;;;5.20;99.90;;;;;;5098425;28;20473;-49
2021/12/24 05:59:42;;;;;;;3.20;2.07;;;5.20;99.90;;;;;;5099275;28;20790;-49
2021/12/24 06:02:10;;;;;;;2.20;1.90;;;5.20;99.90;;;;;;5099041;28;20449;-47
2021/12/24 06:04:37;;;;;;;2.70;1.87;;;5.20;99.90;;;;;;5098438;28;20921;-49
2021/12/24 06:07:06;;;;;;;2.67;1.90;;;5.30;99.90;;;;;;5098064;28;20449;-47
2021/12/24 06:09:33;;;;;;;2.97;1.97;;;5.30;99.90;;;;;;5098359;28;20501;-46
2021/12/24 06:11:59;;;;;;;3.87;2.17;;;5.30;99.90;;;;;;5097941;28;20476;-51
2021/12/24 06:14:26;;;;;;;1.30;1.00;;;5.30;99.90;;;;;;5097934;28;20485;-45
2021/12/24 06:17:01;;;;;;;2.37;2.10;;;5.30;99.90;;;;;;5097807;28;20468;-50
2021/12/24 06:19:30;;;;;;;1.93;1.50;;;5.30;99.90;;;;;;5097917;28;20436;-51
2021/12/24 06:21:57;;;;;;;2.73;1.90;;;5.30;99.90;;;;;;5098275;28;20817;-53
2021/12/24 06:24:25;;;;;;;1.70;1.03;;;5.40;99.90;;;;;;5098738;28;20438;-50
2021/12/24 06:26:52;;;;;;;2.23;1.77;;;5.40;99.90;;;;;;5098628;28;20446;-48
2021/12/24 06:29:20;;;;;;;3.43;2.90;;;5.40;99.90;;;;;;5098421;28;20445;-48
2021/12/24 06:31:47;;;;;;;4.57;1.83;;;5.40;99.90;;;;;;5097525;28;20478;-48
2021/12/24 06:34:14;;;;;;;2.10;1.60;;;5.50;99.90;;;;;;5099883;28;20478;-51
2021/12/24 06:36:44;;;;;;;2.00;1.60;;;5.50;99.90;;;;;;5099515;28;20860;-46
2021/12/24 06:39:11;;;;;;;1.60;1.43;;;5.50;99.90;;;;;;5097539;28;20458;-51
2021/12/24 06:41:38;;;;;;;4.50;1.63;;;5.50;99.90;;;;;;5097363;28;20749;-50
2021/12/24 06:44:09;;;;;;;3.03;2.07;;;5.50;99.90;;;;;;5097897;28;20445;-50
2021/12/24 06:46:36;;;;;;;1.97;1.40;;;5.50;99.90;;;;;;5097372;28;20442;-49
2021/12/24 06:49:03;;;;;;;2.07;1.23;;;5.60;99.90;;;;;;5098183;28;20523;-49
2021/12/24 06:51:29;;;;;;;1.60;1.30;;;5.60;99.90;;;;;;5099635;28;20830;-50
2021/12/24 06:53:58;;;;;;;1.40;1.30;;;5.60;99.90;;;;;;5109422;28;20494;-46
2021/12/24 06:56:24;;;;;;;1.60;1.20;;;5.70;99.90;;;;;;5109600;28;20453;-49
2021/12/24 06:58:51;;;;;;;1.60;1.33;;;5.70;99.90;;;;;;5098801;28;20582;-51
2021/12/24 07:01:18;;;;;;;2.03;1.30;;;5.70;99.90;;;;;;5097111;28;20507;-50
2021/12/24 07:03:45;;;;;;;1.63;1.20;;;5.70;99.90;;;;;;5097277;28;20441;-50
2021/12/24 07:06:12;;;;;;;2.00;1.47;;;5.80;99.90;;;;;;5097707;28;20473;-52
2021/12/24 07:08:39;;;;;;;1.47;1.10;;;5.80;99.90;;;;;;5097537;28;20474;-52
2021/12/24 07:11:08;;;;;;;1.40;1.10;;;5.80;99.90;;;;;;5099713;28;20461;-52
2021/12/24 07:13:34;;;;;;;2.90;1.47;;;5.80;99.90;;;;;;5100322;28;20478;-50
2021/12/24 07:16:02;;;;;;;2.03;1.17;;;5.80;99.90;;;;;;5100307;28;20503;-52
2021/12/24 07:18:29;;;;;;;2.77;1.30;;;5.80;99.90;;;;;;5104345;28;20456;-48
2021/12/24 07:20:56;;;;;;;2.37;1.63;;;5.80;99.90;;;;;;5104494;28;20467;-45
2021/12/24 07:23:23;;;;;;;1.57;1.10;;;5.80;99.90;;;;;;5106229;28;20480;-50
2021/12/24 07:25:50;;;;;;;2.00;1.30;;;5.90;99.90;;;;;;5105271;28;20445;-46
2021/12/24 07:28:18;;;;;;;1.20;1.10;;;5.90;99.90;;;;;;5104786;28;20458;-47
2021/12/24 07:30:45;;;;;;;1.70;1.07;;;5.90;99.90;;;;;;5103431;28;20487;-46
2021/12/24 07:33:14;;;;;;;1.10;0.90;;;5.90;99.90;;;;;;5104054;28;20447;-50
2021/12/24 07:35:42;;;;;;;1.57;1.20;;;5.90;99.90;;;;;;5103751;28;20591;-50
2021/12/24 07:38:09;;;;;;;1.40;1.10;;;6.00;99.90;;;;;;5105491;28;20453;-48
2021/12/24 07:40:36;;;;;;;2.50;1.03;;;6.00;99.90;;;;;;5105932;28;20457;-50
2021/12/24 07:43:03;;;;;;;2.27;1.07;;;6.00;99.90;;;;;;5104587;28;20426;-46
2021/12/24 07:45:32;;;;;;;2.00;1.00;;;6.00;99.90;;;;;;5103731;28;20503;-49
2021/12/24 07:48:10;;;;;;;1.03;0.70;;;6.00;99.90;;;;;;5103988;28;20473;-53
2021/12/24 07:53:21;;;;;;;1.40;1.00;;;6.00;99.90;;;;;;5103363;28;20873;-52
2021/12/24 07:55:48;;;;;;;0.90;0.70;;;6.00;99.90;;;;;;5103698;28;20453;-48
2021/12/24 07:58:16;;;;;;;1.73;1.63;;;6.10;99.90;;;;;;5103881;28;20468;-46
2021/12/24 08:00:45;;;;;;;1.23;0.93;;;6.10;99.90;;;;;;5104079;28;20434;-51
2021/12/24 08:03:12;;;;;;;0.80;0.47;;;6.10;99.90;;;;;;5116575;28;20453;-57
2021/12/24 08:05:42;;;;;;;1.83;1.40;;;6.10;99.90;;;;;;5118476;28;20448;-53
2021/12/24 08:08:10;;;;;;;1.90;1.10;;;6.10;99.90;;;;;;5104352;28;20534;-52
2021/12/24 08:10:38;;;;;;;1.50;0.70;;;6.10;99.90;;;;;;5103751;28;20957;-49
2021/12/24 08:13:06;;;;;;;1.47;1.03;;;6.10;99.90;;;;;;5103115;28;20461;-49
2021/12/24 08:15:34;;;;;;;1.30;0.83;;;6.10;99.90;;;;;;5103347;28;21003;-47
2021/12/24 08:18:02;;;;;;;1.27;1.10;;;6.10;99.90;;;;;;5104287;28;20442;-46
2021/12/24 08:20:28;;;;;;;1.70;1.60;;;6.10;99.90;;;;;;5104035;28;20465;-49
2021/12/24 08:22:56;;;;;;;1.30;1.20;;;6.10;99.90;;;;;;5104302;28;20506;-45
2021/12/24 08:25:24;;;;;;;1.10;0.80;;;6.20;99.90;;;;;;5103444;28;20477;-47
2021/12/24 08:27:51;;;;;;;1.23;1.13;;;6.20;99.90;;;;;;5103517;28;20452;-48
2021/12/24 08:30:18;;;;;;;0.77;0.60;;;6.20;99.90;;;;;;5102509;28;20786;-51
2021/12/24 08:32:44;;;;;;;0.90;0.80;;;6.20;99.90;;;;;;5102940;28;20475;-50
2021/12/24 08:35:17;;;;;;;1.20;1.03;;;6.20;99.90;;;;;;5103412;28;20490;-50
2021/12/24 08:37:44;;;;;;;1.57;1.30;;;6.20;99.90;;;;;;5103209;28;20430;-50
2021/12/24 08:40:12;;;;;;;1.63;1.20;;;6.20;99.90;;;;;;5103329;28;20446;-47
2021/12/24 08:42:38;;;;;;;1.43;1.33;;;6.20;99.90;;;;;;5103845;28;20467;-46
2021/12/24 08:45:06;;;;;;;1.00;0.77;;;6.20;99.90;;;;;;5102613;28;20449;-49
2021/12/24 08:47:33;;;;;;;2.10;1.47;;;6.30;99.90;;;;;;5101699;28;20470;-47
2021/12/24 08:50:00;;;;;;;1.30;1.10;;;6.30;99.90;;;;;;5104065;28;20451;-50
2021/12/24 08:52:28;;;;;;;1.50;1.23;;;6.30;99.90;;;;;;5104758;28;20478;-48
2021/12/24 08:54:54;;;;;;;1.00;0.70;;;6.40;99.90;;;;;;5101591;28;20478;-51
2021/12/24 08:57:21;;;;;;;1.53;1.43;;;6.40;99.90;;;;;;5101500;28;20465;-48
2021/12/24 08:59:48;;;;;;;1.47;1.00;;;6.40;99.90;;;;;;5100989;28;20473;-52
2021/12/24 09:02:15;;;;;;;1.17;0.87;;;6.40;99.90;;;;;;5101856;28;20454;-47
2021/12/24 09:04:41;;;;;;;3.73;1.50;;;6.40;99.90;;;;;;5089147;28;20463;-48
2021/12/24 09:07:08;;;;;;;1.93;1.10;;;6.40;99.90;;;;;;5081095;28;20455;-50
2021/12/24 09:09:36;;;;;;;1.97;0.90;;;6.40;99.90;;;;;;5080230;28;20475;-51
2021/12/24 09:12:03;;;;;;;1.10;0.80;;;6.40;99.90;;;;;;5080318;28;20458;-48
2021/12/24 09:14:30;;;;;;;1.63;1.53;;;6.40;99.90;;;;;;5080884;28;20474;-50
2021/12/24 09:17:00;;;;;;;1.27;1.00;;;6.40;99.90;;;;;;5081088;28;20887;-49
2021/12/24 09:19:28;;;;;;;0.90;0.73;;;6.50;99.90;;;;;;5080584;28;20577;-51
2021/12/24 09:21:57;;;;;;;0.80;0.60;;;6.50;99.90;;;;;;5080581;28;20474;-50
2021/12/24 09:24:24;;;;;;;1.00;0.70;;;6.50;99.90;;;;;;5080810;28;20454;-51
2021/12/24 09:26:56;;;;;;;1.03;0.70;;;6.50;99.90;;;;;;5083620;28;20501;-47
2021/12/24 09:29:23;;;;;;;1.17;0.80;;;6.50;99.90;;;;;;5101080;28;20450;-48
2021/12/24 09:31:49;;;;;;;0.77;0.57;;;6.50;99.90;;;;;;5100633;28;20507;-55
2021/12/24 09:34:16;;;;;;;1.80;0.90;;;6.50;99.90;;;;;;5100923;28;21009;-45
2021/12/24 09:36:43;;;;;;;11.60;1.37;;;6.50;99.90;;;;;;5103061;28;20457;-52
2021/12/24 09:39:11;;;;;;;1.10;1.00;;;6.50;99.90;;;;;;5102133;28;20480;-46
2021/12/24 09:41:37;;;;;;;1.30;0.90;;;6.50;99.90;;;;;;5101737;28;20476;-46
2021/12/24 09:44:06;;;;;;;1.37;0.80;;;6.50;99.90;;;;;;5100785;28;20930;-47
2021/12/24 09:46:33;;;;;;;1.80;1.07;;;6.40;99.90;;;;;;5100524;28;20465;-49
2021/12/24 09:49:00;;;;;;;2.43;1.40;;;6.40;99.90;;;;;;5104725;28;20476;-50
2021/12/24 09:51:27;;;;;;;1.00;0.60;;;6.40;99.90;;;;;;5109744;28;20495;-45
2021/12/24 09:53:56;;;;;;;1.47;1.10;;;6.40;99.90;;;;;;5097325;28;20968;-49
2021/12/24 09:56:24;;;;;;;1.13;0.80;;;6.40;99.90;;;;;;5100342;28;20469;-52
2021/12/24 09:58:51;;;;;;;1.37;0.80;;;6.40;99.90;;;;;;5101646;28;20480;-50
2021/12/24 10:01:34;;;;;;;4.40;1.20;;;6.40;99.90;;;;;;5102580;28;20461;-48
2021/12/24 10:04:03;;;;;;;1.90;1.30;;;6.40;99.90;;;;;;5100567;28;20516;-46
2021/12/24 10:06:30;;;;;;;3.17;1.00;;;6.40;99.90;;;;;;5099765;28;20879;-47
2021/12/24 10:09:01;;;;;;;2.17;1.07;;;6.50;99.90;;;;;;5098980;28;20511;-49
2021/12/24 10:11:30;;;;;;;2.00;1.30;;;6.50;99.90;;;;;;5098817;28;20956;-50
2021/12/24 10:14:05;;;;;;;1.30;0.97;;;6.50;99.90;;;;;;5098799;28;20441;-46
2021/12/24 10:16:33;;;;;;;1.20;0.90;;;6.50;99.90;;;;;;5098203;28;20480;-48
2021/12/24 10:19:02;;;;;;;0.80;0.60;;;6.50;99.90;;;;;;5100100;28;20470;-48
2021/12/24 10:21:32;;;;;;;2.00;1.30;;;6.50;99.90;;;;;;5100945;28;20445;-48
2021/12/24 10:24:01;;;;;;;1.13;1.00;;;6.50;99.90;;;;;;5099768;28;20427;-52
2021/12/24 10:26:30;;;;;;;0.90;0.70;;;6.40;99.90;;;;;;5099728;28;20462;-46
2021/12/24 10:29:05;;;;;;;1.10;0.77;;;6.50;99.90;;;;;;5100297;28;20519;-51
2021/12/24 10:31:36;;;;;;;1.50;1.00;;;6.40;99.90;;;;;;5100632;28;20581;-46
2021/12/24 10:34:23;;;;;;;1.20;1.10;;;6.40;99.90;;;;;;5100027;28;20506;-48
2021/12/24 10:37:14;;;;;;;2.20;1.27;;;6.40;99.90;;;;;;5105610;28;20526;-51
2021/12/24 10:39:44;;;;;;;0.93;0.77;;;6.40;99.90;;;;;;5099480;28;20430;-50
2021/12/24 10:42:15;;;;;;;2.73;1.20;;;6.40;99.90;;;;;;5098630;28;20449;-50
2021/12/24 10:44:44;;;;;;;2.47;1.90;;;6.50;99.90;;;;;;5098788;28;20458;-49
2021/12/24 10:47:16;;;;;;;1.80;1.33;;;6.50;99.90;;;;;;5098919;28;20468;-51
2021/12/24 10:50:06;;;;;;;1.30;1.10;;;6.60;99.90;;;;;;5098279;28;20437;-48
2021/12/24 10:55:37;;;;;;;1.80;1.00;;;6.60;99.90;;;;;;5101056;28;20537;-50
2021/12/24 10:58:07;;;;;;;1.30;0.83;;;6.50;99.90;;;;;;5098721;28;20426;-48
2021/12/24 11:00:38;;;;;;;2.03;1.33;;;6.50;99.90;;;;;;5099241;28;20434;-53
2021/12/24 11:03:09;;;;;;;1.47;0.90;;;6.40;99.90;;;;;;5099261;28;20486;-52
2021/12/24 11:05:39;;;;;;;1.27;1.17;;;6.40;99.90;;;;;;5099048;28;20851;-46
2021/12/24 11:08:08;;;;;;;2.10;1.20;;;6.40;99.90;;;;;;5099546;28;20442;-43
2021/12/24 11:10:38;;;;;;;2.40;1.07;;;6.40;99.90;;;;;;5100871;28;20467;-48
2021/12/24 11:13:11;;;;;;;1.67;1.37;;;6.40;99.90;;;;;;5098943;28;20482;-47
2021/12/24 11:15:41;;;;;;;1.57;1.20;;;6.70;99.90;;;;;;5098475;28;20476;-51
2021/12/24 11:18:15;;;;;;;1.33;1.23;;;6.50;99.90;;;;;;5098159;28;20456;-49
2021/12/24 11:20:43;;;;;;;2.23;1.00;;;6.50;99.90;;;;;;5097893;28;20439;-50
2021/12/24 11:23:11;;;;;;;1.30;1.00;;;6.50;99.90;;;;;;5098217;28;20458;-46
2021/12/24 11:25:44;;;;;;;4.17;1.67;;;6.50;99.90;;;;;;5097701;28;20758;-47
2021/12/24 11:28:13;;;;;;;2.80;1.20;;;6.50;99.90;;;;;;5098277;28;20472;-48
2021/12/24 11:30:43;;;;;;;1.93;1.03;;;6.50;99.90;;;;;;5098253;28;20456;-51
2021/12/24 11:33:15;;;;;;;1.07;0.80;;;6.50;99.90;;;;;;5098405;28;20474;-48
2021/12/24 11:35:42;;;;;;;1.17;0.73;;;6.50;99.90;;;;;;5098596;28;20496;-53
2021/12/24 11:38:13;;;;;;;0.90;0.80;;;6.40;99.90;;;;;;5098460;28;20801;-52
2021/12/24 11:40:40;;;;;;;1.40;1.03;;;6.40;99.90;;;;;;5099195;28;20462;-49
2021/12/24 11:43:07;;;;;;;1.80;0.97;;;6.40;99.90;;;;;;5097767;28;20918;-51
2021/12/24 11:45:35;;;;;;;1.00;0.80;;;6.40;99.90;;;;;;5097748;28;20438;-50
2021/12/24 11:48:02;;;;;;;1.00;0.90;;;6.40;99.90;;;;;;5098376;28;20478;-51
2021/12/24 11:50:31;;;;;;;0.90;0.73;;;6.30;99.90;;;;;;5098752;28;20457;-51
2021/12/24 11:53:00;;;;;;;2.50;1.07;;;6.30;99.90;;;;;;5097698;28;20958;-50
2021/12/24 11:55:32;;;;;;;1.73;1.30;;;6.30;99.90;;;;;;5099500;28;20727;-53
2021/12/24 11:58:01;;;;;;;1.30;0.80;;;6.20;99.90;;;;;;5100147;28;20900;-50
2021/12/24 12:00:34;;;;;;;0.70;0.50;;;6.10;99.90;;;;;;5099761;28;20438;-51
2021/12/24 12:03:01;;;;;;;1.00;0.80;;;6.10;99.90;;;;;;5098957;28;20509;-50
2021/12/24 12:05:35;;;;;;;1.80;0.70;;;6.00;99.90;;;;;;5101936;28;20461;-51
2021/12/24 12:08:32;;;;;;;1.33;0.87;;;5.90;99.90;;;;;;5102316;28;20469;-50
2021/12/24 12:11:01;;;;;;;0.70;0.50;;;5.80;99.90;;;;;;5102233;28;20446;-47
2021/12/24 12:13:46;;;;;;;1.10;0.50;;;5.70;99.90;;;;;;5102352;28;20470;-47
2021/12/24 12:16:15;;;;;;;0.93;0.70;;;5.60;99.90;;;;;;5103809;28;20889;-52
2021/12/24 12:18:46;;;;;;;0.83;0.77;;;5.50;99.90;;;;;;5105493;28;20461;-48
2021/12/24 12:21:19;;;;;;;0.90;0.60;;;5.50;99.90;;;;;;5104168;28;20446;-53
2021/12/24 12:26:47;;;;;;;1.10;0.90;;;5.40;99.90;;;;;;5115926;28;20457;-49
2021/12/24 12:29:26;;;;;;;0.80;0.60;;;5.40;99.90;;;;;;5116558;28;20799;-47
2021/12/24 12:31:57;;;;;;;0.90;0.60;;;5.40;99.90;;;;;;5117899;28;20418;-47
2021/12/24 12:34:50;;;;;;;1.20;0.70;;;5.20;99.90;;;;;;5117770;28;20496;-50
2021/12/24 12:37:20;;;;;;;0.90;0.70;;;5.10;99.90;;;;;;5117331;28;20461;-48
2021/12/24 12:39:49;;;;;;;0.90;0.60;;;5.10;99.90;;;;;;5117004;28;20446;-46
2021/12/24 12:42:17;;;;;;;1.30;0.80;;;5.00;99.90;;;;;;5117452;28;20448;-47
2021/12/24 12:44:47;;;;;;;1.43;0.80;;;5.00;99.90;;;;;;5116844;28;20465;-51
2021/12/24 12:47:15;;;;;;;1.03;0.83;;;4.90;99.90;;;;;;5117053;28;20485;-53
2021/12/24 12:49:43;;;;;;;1.20;0.70;;;4.90;99.90;;;;;;5116583;28;20470;-53
2021/12/24 12:52:20;;;;;;;1.00;0.70;;;4.90;99.90;;;;;;5117705;28;20426;-45
2021/12/24 12:54:50;;;;;;;1.53;0.90;;;4.80;99.90;;;;;;5118351;28;20480;-46
2021/12/24 12:57:23;;;;;;;1.10;0.90;;;4.70;99.90;;;;;;5117684;28;20437;-51
2021/12/24 13:00:27;;;;;;;1.37;1.17;;;4.70;99.90;;;;;;5118021;28;20462;-48
2021/12/24 13:03:11;;;;;;;0.90;0.70;;;4.50;99.90;;;;;;5118153;28;20436;-51
2021/12/24 13:06:13;;;;;;;1.77;0.97;;;4.30;99.90;;;;;;5117706;28;20445;-49
2021/12/24 13:08:40;;;;;;;0.80;0.70;;;4.10;99.90;;;;;;5118050;28;20430;-49
2021/12/24 13:11:11;;;;;;;0.90;0.70;;;4.00;99.90;;;;;;5117605;28;20458;-54
2021/12/24 13:13:54;;;;;;;1.33;1.20;;;4.00;99.90;;;;;;5118128;28;20437;-50
2021/12/24 13:16:23;;;;;;;2.50;1.70;;;4.00;99.90;;;;;;5116741;28;20481;-53
2021/12/24 13:18:57;;;;;;;1.57;1.30;;;4.00;99.90;;;;;;5117417;28;20418;-44
2021/12/24 13:24:19;;;;;;;1.80;0.90;;;4.00;99.90;;;;;;5116540;28;20430;-49
2021/12/24 13:26:49;;;;;;;0.97;0.87;;;3.90;99.90;;;;;;5118138;28;20442;-51
2021/12/24 13:29:17;;;;;;;1.43;1.10;;;3.90;99.90;;;;;;5117366;28;20468;-54
2021/12/24 13:31:51;;;;;;;1.43;1.30;;;3.80;99.90;;;;;;5117154;28;20465;-49
2021/12/24 13:34:18;;;;;;;1.17;1.00;;;3.80;99.90;;;;;;5117071;28;20445;-59
2021/12/24 13:36:45;;;;;;;1.60;1.20;;;3.70;99.90;;;;;;5116924;28;20482;-51
2021/12/24 13:39:14;;;;;;;1.80;1.60;;;3.70;99.90;;;;;;5117019;28;20461;-54
2021/12/24 13:41:42;;;;;;;1.90;1.47;;;3.70;99.90;;;;;;5116801;28;20446;-50
2021/12/24 13:44:23;;;;;;;2.30;1.30;;;3.80;99.90;;;;;;5117260;28;20445;-49
2021/12/24 13:47:05;;;;;;;1.60;1.50;;;3.70;99.90;;;;;;5117342;28;20458;-54
2021/12/24 13:50:01;;;;;;;3.50;1.73;;;3.70;99.90;;;;;;5117800;28;20419;-50
2021/12/24 13:55:26;;;;;;;1.37;1.07;;;3.60;99.90;;;;;;5116790;28;20997;-53
2021/12/24 13:57:55;;;;;;;1.80;1.43;;;3.60;99.90;;;;;;5116659;28;20441;-43
2021/12/24 14:00:24;;;;;;;3.37;1.27;;;3.60;99.90;;;;;;5116626;28;20468;-54
2021/12/24 14:02:55;;;;;;;1.90;1.80;;;3.60;99.90;;;;;;5116865;28;20468;-52
2021/12/24 14:05:22;;;;;;;1.83;1.63;;;3.50;99.90;;;;;;5116180;28;20459;-55
2021/12/24 14:08:08;;;;;;;2.17;1.87;;;3.40;99.90;;;;;;5116592;28;20472;-50
2021/12/24 14:10:38;;;;;;;1.60;1.17;;;3.40;99.90;;;;;;5116002;28;20835;-52
2021/12/24 14:13:09;;;;;;;3.37;2.10;;;3.40;99.90;;;;;;5115999;28;20521;-48
2021/12/24 14:15:51;;;;;;;2.37;2.17;;;3.40;99.90;;;;;;5116054;28;20491;-52
2021/12/24 14:18:43;;;;;;;2.70;1.80;;;3.30;99.90;;;;;;5116092;28;20533;-51
2021/12/24 14:21:46;;;;;;;1.77;1.30;;;3.30;99.90;;;;;;5116145;28;20441;-51
2021/12/24 14:24:20;;;;;;;1.63;1.40;;;3.30;99.90;;;;;;5115970;28;20483;-53
2021/12/24 14:26:50;;;;;;;3.30;1.70;;;3.30;99.90;;;;;;5115397;28;20455;-52
2021/12/24 14:29:35;;;;;;;2.00;1.80;;;3.40;99.90;;;;;;5116427;28;20426;-52
2021/12/24 14:32:07;;;;;;;6.53;3.13;;;3.40;99.90;;;;;;5115643;28;20579;-49
2021/12/24 14:34:45;;;;;;;1.77;1.40;;;3.40;99.90;;;;;;5116287;28;20422;-48